Time;durP1;ratioP1;P1;durP2;ratioP2;P2;SDS_P1;SDS_P2;PMS_P1;PMS_P2;Temp;Humidity;BMP_temperature;BMP_pressure;BME280_temperature;BME280_humidity;BME280_pressure;Samples;Min_cycle;Max_cycle;Signal;HPM_P1;HPM_P2
2021/12/09 00:00:14;;;;;;;16.77;15.07;;;22.30;72.40;;;;;;6215699;28;89109;-63
2021/12/09 00:03:19;;;;;;;15.20;13.63;;;22.30;72.30;;;;;;6214921;28;88626;-63
2021/12/09 00:06:25;;;;;;;16.65;14.95;;;22.30;72.30;;;;;;6206792;28;90711;-63
2021/12/09 00:09:27;;;;;;;16.17;14.48;;;22.30;72.30;;;;;;6205977;28;89035;-62
2021/12/09 00:12:29;;;;;;;16.98;15.27;;;22.30;72.30;;;;;;6203247;28;90385;-62
2021/12/09 00:15:31;;;;;;;14.90;13.40;;;22.30;72.30;;;;;;6203667;28;89076;-61
2021/12/09 00:18:35;;;;;;;16.55;14.85;;;22.20;72.30;;;;;;6209988;28;89443;-62
2021/12/09 00:21:37;;;;;;;16.40;14.80;;;22.30;72.30;;;;;;6210727;28;89129;-62
2021/12/09 00:24:40;;;;;;;16.23;14.52;;;22.30;72.30;;;;;;6202305;28;88942;-62
2021/12/09 00:27:43;;;;;;;16.08;14.48;;;22.20;72.30;;;;;;6212252;28;89078;-62
2021/12/09 00:30:45;;;;;;;16.65;15.05;;;22.20;72.30;;;;;;6207639;28;89081;-62
2021/12/09 00:33:48;;;;;;;16.40;14.80;;;22.20;72.30;;;;;;6199660;28;89828;-62
2021/12/09 00:36:59;;;;;;;16.73;15.02;;;22.10;72.30;;;;;;6202388;28;89069;-62
2021/12/09 00:40:01;;;;;;;16.42;14.82;;;22.10;72.30;;;;;;6211832;28;89429;-62
2021/12/09 00:43:03;;;;;;;16.58;14.98;;;22.10;72.30;;;;;;6212197;28;90091;-62
2021/12/09 00:46:07;;;;;;;17.33;15.57;;;22.20;72.50;;;;;;6213941;28;89416;-62
2021/12/09 00:49:10;;;;;;;17.17;15.48;;;22.10;72.50;;;;;;6207176;28;89015;-63
2021/12/09 00:52:13;;;;;;;16.60;15.00;;;22.10;72.30;;;;;;6206431;28;89157;-62
2021/12/09 00:55:17;;;;;;;17.48;15.73;;;22.10;72.40;;;;;;6210715;28;89186;-62
2021/12/09 00:58:19;;;;;;;16.30;14.80;;;22.00;72.30;;;;;;6218323;28;89143;-62
2021/12/09 01:01:22;;;;;;;17.23;15.52;;;22.00;72.30;;;;;;6207159;28;89114;-62
2021/12/09 01:04:25;;;;;;;17.27;15.57;;;22.00;72.30;;;;;;6201369;28;88300;-62
2021/12/09 01:07:27;;;;;;;17.38;15.68;;;22.00;72.40;;;;;;6211658;28;89107;-63
2021/12/09 01:10:29;;;;;;;17.58;15.88;;;22.00;72.50;;;;;;6210267;28;88575;-63
2021/12/09 01:13:31;;;;;;;17.65;15.85;;;22.00;72.40;;;;;;6214961;28;88947;-63
2021/12/09 01:16:34;;;;;;;17.38;15.68;;;22.00;72.50;;;;;;6206606;28;89089;-62
2021/12/09 01:19:37;;;;;;;17.30;15.60;;;22.00;72.40;;;;;;6216531;28;89014;-62
2021/12/09 01:22:42;;;;;;;17.60;15.90;;;22.00;72.40;;;;;;6205982;28;89124;-62
2021/12/09 01:25:44;;;;;;;17.25;15.63;;;22.00;72.70;;;;;;6199840;28;89106;-62
2021/12/09 01:28:51;;;;;;;17.63;15.82;;;22.00;73.30;;;;;;6207780;28;89203;-62
2021/12/09 01:31:59;;;;;;;17.10;15.43;;;22.00;72.30;;;;;;6212012;28;89727;-63
2021/12/09 01:35:04;;;;;;;17.48;15.68;;;22.00;72.30;;;;;;6205519;28;88350;-62
2021/12/09 01:38:11;;;;;;;16.83;15.15;;;22.00;73.20;;;;;;6210382;28;89057;-63
2021/12/09 01:41:13;;;;;;;17.25;15.55;;;22.00;72.30;;;;;;6206359;28;89270;-63
2021/12/09 01:44:16;;;;;;;16.92;15.23;;;22.00;72.30;;;;;;6209466;28;90018;-62
2021/12/09 01:47:18;;;;;;;16.80;15.18;;;21.90;72.30;;;;;;6200148;28;88137;-63
2021/12/09 01:50:22;;;;;;;17.40;15.60;;;21.90;72.30;;;;;;6206324;28;89361;-63
2021/12/09 01:53:25;;;;;;;16.00;14.45;;;21.90;72.30;;;;;;6210506;28;89149;-63
2021/12/09 01:56:28;;;;;;;16.23;14.63;;;21.90;72.30;;;;;;6201010;28;89128;-63
2021/12/09 01:59:30;;;;;;;16.23;14.57;;;21.90;72.30;;;;;;6204300;28;89080;-63
2021/12/09 02:02:32;;;;;;;16.02;14.43;;;21.90;72.30;;;;;;6204254;28;89126;-62
2021/12/09 02:05:40;;;;;;;16.17;14.57;;;21.90;72.40;;;;;;6201910;28;88307;-63
2021/12/09 02:08:43;;;;;;;16.27;14.68;;;21.90;72.40;;;;;;6203411;28;89310;-63
2021/12/09 02:11:46;;;;;;;16.27;14.68;;;21.80;72.30;;;;;;6201983;28;89269;-63
2021/12/09 02:14:48;;;;;;;16.08;14.38;;;21.80;72.40;;;;;;6208042;28;89998;-62
2021/12/09 02:17:51;;;;;;;16.10;14.50;;;21.80;72.40;;;;;;6207503;28;89035;-62
2021/12/09 02:21:12;;;;;;;15.98;14.38;;;21.80;72.40;;;;;;6202900;28;89061;-63
2021/12/09 02:24:17;;;;;;;15.30;13.80;;;21.80;72.40;;;;;;6205757;28;89155;-63
2021/12/09 02:27:19;;;;;;;15.95;14.35;;;21.80;72.40;;;;;;6226235;28;89059;-63
2021/12/09 02:30:21;;;;;;;15.68;14.18;;;21.80;72.40;;;;;;6199680;28;89078;-62
2021/12/09 02:33:23;;;;;;;15.55;14.05;;;21.80;72.50;;;;;;6197311;28;89410;-63
2021/12/09 02:36:27;;;;;;;15.25;13.75;;;21.80;72.50;;;;;;6200844;28;87374;-62
2021/12/09 02:39:29;;;;;;;15.90;14.30;;;21.80;72.50;;;;;;6205709;28;88998;-63
2021/12/09 02:42:31;;;;;;;15.73;14.15;;;21.80;72.50;;;;;;6199007;28;88678;-62
2021/12/09 02:45:33;;;;;;;14.70;13.30;;;21.80;72.50;;;;;;6201209;28;89976;-63
2021/12/09 02:48:35;;;;;;;14.05;12.70;;;21.80;72.50;;;;;;6205554;28;89353;-62
2021/12/09 02:51:40;;;;;;;14.27;12.88;;;21.80;72.40;;;;;;6205779;28;89283;-63
2021/12/09 02:54:42;;;;;;;14.70;13.30;;;21.70;72.30;;;;;;6196503;28;89519;-63
2021/12/09 02:57:44;;;;;;;14.88;13.38;;;21.80;72.30;;;;;;6206207;28;89053;-63
2021/12/09 03:00:57;;;;;;;14.45;13.05;;;21.80;72.30;;;;;;6203167;28;89043;-62
2021/12/09 03:04:01;;;;;;;13.63;12.32;;;21.80;72.30;;;;;;6215355;28;89021;-63
2021/12/09 03:07:06;;;;;;;13.80;12.50;;;21.80;72.30;;;;;;6205873;28;88291;-63
2021/12/09 03:10:17;;;;;;;14.45;13.05;;;21.80;72.30;;;;;;6207664;28;89199;-63
2021/12/09 03:13:20;;;;;;;14.30;12.93;;;21.70;72.20;;;;;;6199571;28;89184;-63
2021/12/09 03:16:22;;;;;;;14.02;12.63;;;21.70;72.30;;;;;;6199574;28;88625;-63
2021/12/09 03:19:24;;;;;;;13.65;12.32;;;21.70;72.30;;;;;;6208101;28;89490;-63
2021/12/09 03:22:28;;;;;;;13.50;12.20;;;21.80;72.30;;;;;;6202738;28;89176;-62
2021/12/09 03:25:30;;;;;;;14.25;12.88;;;21.70;72.30;;;;;;6213872;28;89053;-62
2021/12/09 03:28:32;;;;;;;14.02;12.73;;;21.70;72.30;;;;;;6209030;28;88334;-62
2021/12/09 03:31:36;;;;;;;13.80;12.50;;;21.60;72.20;;;;;;6199331;28;87975;-63
2021/12/09 03:34:39;;;;;;;13.07;11.77;;;21.70;72.30;;;;;;6193247;28;89039;-62
2021/12/09 03:37:43;;;;;;;13.02;11.73;;;21.60;72.30;;;;;;6205929;28;88459;-63
2021/12/09 03:40:46;;;;;;;13.52;12.23;;;21.60;72.30;;;;;;6200933;28;89528;-63
2021/12/09 03:43:48;;;;;;;13.57;12.25;;;21.60;72.30;;;;;;6193685;28;89407;-63
2021/12/09 03:46:51;;;;;;;13.13;11.90;;;21.60;72.30;;;;;;6204128;28;90022;-63
2021/12/09 03:49:54;;;;;;;13.75;12.45;;;21.60;72.40;;;;;;6220440;28;89032;-63
2021/12/09 03:52:57;;;;;;;12.98;11.73;;;21.60;72.30;;;;;;6199121;28;87996;-63
2021/12/09 03:55:59;;;;;;;14.25;12.80;;;21.60;72.40;;;;;;6206640;28;89451;-63
2021/12/09 03:59:02;;;;;;;13.98;12.63;;;21.60;72.40;;;;;;6217506;28;89165;-63
2021/12/09 04:02:05;;;;;;;13.55;12.18;;;21.60;72.50;;;;;;6214934;28;89105;-63
2021/12/09 04:05:09;;;;;;;14.52;13.07;;;21.60;72.50;;;;;;6201280;28;89400;-63
2021/12/09 04:08:12;;;;;;;14.02;12.63;;;21.50;72.50;;;;;;6202417;28;88281;-63
2021/12/09 04:11:14;;;;;;;13.65;12.35;;;21.50;72.50;;;;;;6209748;28;89110;-63
2021/12/09 04:14:17;;;;;;;14.23;12.82;;;21.50;72.50;;;;;;6216156;28;89111;-63
2021/12/09 04:17:19;;;;;;;14.63;13.23;;;21.50;72.50;;;;;;6204746;28;90022;-63
2021/12/09 04:20:22;;;;;;;13.25;11.95;;;21.50;72.50;;;;;;6218979;28;89318;-63
2021/12/09 04:23:25;;;;;;;13.70;12.30;;;21.50;72.40;;;;;;6197415;28;89027;-62
2021/12/09 04:26:27;;;;;;;13.75;12.45;;;21.60;72.50;;;;;;6203211;28;87985;-63
2021/12/09 04:29:30;;;;;;;13.93;12.63;;;21.50;72.30;;;;;;6201336;28;89114;-62
2021/12/09 04:32:32;;;;;;;13.95;12.55;;;21.60;72.30;;;;;;6197303;28;89168;-63
2021/12/09 04:35:34;;;;;;;13.25;11.95;;;21.60;72.30;;;;;;6195379;28;88926;-63
2021/12/09 04:38:38;;;;;;;13.55;12.25;;;21.60;72.30;;;;;;6203729;28;88398;-63
2021/12/09 04:41:40;;;;;;;13.30;12.02;;;21.60;72.30;;;;;;6226784;28;88965;-63
2021/12/09 04:44:42;;;;;;;13.95;12.60;;;21.60;72.20;;;;;;6187609;28;89223;-62
2021/12/09 04:47:44;;;;;;;13.43;12.13;;;21.60;72.10;;;;;;6196831;28;90105;-63
2021/12/09 04:50:46;;;;;;;14.15;12.75;;;21.60;72.00;;;;;;6197368;28;89044;-63
2021/12/09 04:53:50;;;;;;;13.60;12.30;;;21.70;72.00;;;;;;6209279;28;88278;-63
2021/12/09 04:56:52;;;;;;;12.98;11.68;;;21.70;72.00;;;;;;6205391;28;89202;-63
2021/12/09 04:59:54;;;;;;;13.98;12.57;;;21.70;72.00;;;;;;6200833;28;89406;-63
2021/12/09 05:03:04;;;;;;;13.98;12.57;;;21.70;71.90;;;;;;6204584;28;89175;-62
2021/12/09 05:06:06;;;;;;;13.32;12.02;;;21.70;71.80;;;;;;6205121;28;89283;-63
2021/12/09 05:09:16;;;;;;;13.15;11.88;;;21.80;71.90;;;;;;6209250;28;88319;-63
2021/12/09 05:12:18;;;;;;;13.10;11.80;;;21.80;71.80;;;;;;6203292;28;89447;-63
2021/12/09 05:15:20;;;;;;;13.50;12.20;;;21.80;71.80;;;;;;6205117;28;89404;-62
2021/12/09 05:18:22;;;;;;;13.20;11.90;;;21.80;71.70;;;;;;6201389;28;90027;-63
2021/12/09 05:21:27;;;;;;;13.82;12.52;;;21.80;71.60;;;;;;6202124;28;91014;-63
2021/12/09 05:24:34;;;;;;;12.73;11.52;;;21.80;71.70;;;;;;6218671;28;89105;-63
2021/12/09 05:27:37;;;;;;;12.70;11.43;;;21.80;71.60;;;;;;6198353;28;89077;-63
2021/12/09 05:32:07;;;;;;;13.25;11.95;;;21.80;71.60;;;;;;6200281;28;89342;-62
2021/12/09 05:34:01;;;;;;;13.75;12.35;;;21.80;71.60;;;;;;6207380;28;88533;-63
2021/12/09 05:37:03;;;;;;;12.82;11.55;;;21.80;71.80;;;;;;6195333;28;89308;-63
2021/12/09 05:40:08;;;;;;;13.32;12.00;;;21.80;71.70;;;;;;6197573;28;88659;-63
2021/12/09 05:43:10;;;;;;;12.82;11.63;;;21.80;71.80;;;;;;6200254;28;90156;-63
2021/12/09 05:46:12;;;;;;;12.75;11.55;;;21.80;71.80;;;;;;6204823;28;89050;-63
2021/12/09 05:49:15;;;;;;;12.38;11.20;;;21.80;71.80;;;;;;6194494;28;91101;-63
2021/12/09 05:52:18;;;;;;;12.75;11.45;;;21.80;72.70;;;;;;6201020;28;89021;-63
2021/12/09 05:55:21;;;;;;;11.98;10.88;;;21.80;71.90;;;;;;6209033;28;87972;-63
2021/12/09 05:58:24;;;;;;;12.70;11.50;;;21.80;71.90;;;;;;6196865;28;89141;-63
2021/12/09 06:01:26;;;;;;;12.70;11.50;;;21.80;71.80;;;;;;6209910;28;89028;-62
2021/12/09 06:04:28;;;;;;;12.57;11.27;;;21.80;71.90;;;;;;6209946;28;89074;-63
2021/12/09 06:07:30;;;;;;;11.95;10.85;;;21.80;71.90;;;;;;6201641;28;89143;-63
2021/12/09 06:10:36;;;;;;;12.60;11.40;;;21.80;71.80;;;;;;6195651;28;88617;-63
2021/12/09 06:13:38;;;;;;;11.82;10.73;;;21.80;71.80;;;;;;6206669;28;89216;-63
2021/12/09 06:16:40;;;;;;;11.48;10.38;;;21.80;71.80;;;;;;6214425;28;89020;-62
2021/12/09 06:19:42;;;;;;;11.25;10.15;;;21.80;71.80;;;;;;6206631;28;90023;-63
2021/12/09 06:22:44;;;;;;;12.13;10.93;;;21.90;71.80;;;;;;6202562;28;89057;-63
2021/12/09 06:25:49;;;;;;;12.48;11.18;;;21.80;72.60;;;;;;6216957;28;89066;-63
2021/12/09 06:28:51;;;;;;;11.85;10.75;;;21.90;71.70;;;;;;6223917;28;89156;-63
2021/12/09 06:31:54;;;;;;;11.50;10.35;;;21.90;71.70;;;;;;6206557;28;89411;-64
2021/12/09 06:34:56;;;;;;;11.50;10.40;;;21.90;71.60;;;;;;6201457;28;89040;-63
2021/12/09 06:37:59;;;;;;;11.35;10.25;;;21.90;71.60;;;;;;6194450;28;89199;-63
2021/12/09 06:41:03;;;;;;;11.43;10.32;;;21.90;71.60;;;;;;6205001;28;88622;-63
2021/12/09 06:44:06;;;;;;;11.32;10.23;;;21.90;71.50;;;;;;6221535;28;89615;-63
2021/12/09 06:47:08;;;;;;;11.00;10.00;;;21.90;71.50;;;;;;6228849;28;89069;-63
2021/12/09 06:50:12;;;;;;;11.15;10.05;;;22.00;71.50;;;;;;6216224;28;90145;-63
2021/12/09 06:53:16;;;;;;;11.23;10.13;;;22.00;71.50;;;;;;6225703;28;89089;-62
2021/12/09 06:56:20;;;;;;;10.95;9.85;;;22.00;71.50;;;;;;6211797;28;89223;-63
2021/12/09 06:59:22;;;;;;;10.73;9.73;;;22.10;71.50;;;;;;6211298;28;88978;-63
2021/12/09 07:02:24;;;;;;;10.55;9.55;;;22.10;71.50;;;;;;6202030;28;88123;-62
2021/12/09 07:05:29;;;;;;;10.63;9.63;;;22.10;71.40;;;;;;6208840;28;89270;-63
2021/12/09 07:08:31;;;;;;;10.45;9.45;;;22.10;71.30;;;;;;6205453;28;89342;-63
2021/12/09 07:11:34;;;;;;;10.80;9.80;;;22.10;71.30;;;;;;6194056;28;88494;-62
2021/12/09 07:14:36;;;;;;;11.18;10.10;;;22.10;71.30;;;;;;6198279;28;89419;-63
2021/12/09 07:17:39;;;;;;;10.75;9.75;;;22.10;71.20;;;;;;6199527;28;89188;-63
2021/12/09 07:20:41;;;;;;;10.77;9.77;;;22.10;71.20;;;;;;6210831;28;89043;-62
2021/12/09 07:23:43;;;;;;;10.43;9.43;;;22.20;71.20;;;;;;6210062;28;90934;-63
2021/12/09 07:26:47;;;;;;;10.32;9.32;;;22.20;71.10;;;;;;6218398;28;89045;-63
2021/12/09 07:29:49;;;;;;;10.45;9.35;;;22.30;71.20;;;;;;6207418;28;89077;-63
2021/12/09 07:32:51;;;;;;;9.90;9.00;;;22.20;71.10;;;;;;6199642;28;89145;-63
2021/12/09 07:35:53;;;;;;;10.20;9.20;;;22.30;71.10;;;;;;6207368;28;89550;-62
2021/12/09 07:38:55;;;;;;;9.65;8.75;;;22.30;71.10;;;;;;6207053;28;88984;-62
2021/12/09 07:41:59;;;;;;;9.70;8.80;;;22.30;71.10;;;;;;6201925;28;88371;-63
2021/12/09 07:45:02;;;;;;;9.55;8.65;;;22.30;71.10;;;;;;6203301;28;89461;-63
2021/12/09 07:48:04;;;;;;;9.27;8.38;;;22.30;71.10;;;;;;6209295;28;89189;-63
2021/12/09 07:51:06;;;;;;;9.73;8.82;;;22.30;71.10;;;;;;6204777;28;91016;-63
2021/12/09 07:54:08;;;;;;;9.43;8.52;;;22.30;71.10;;;;;;6207400;28;89070;-63
2021/12/09 07:57:12;;;;;;;9.45;8.63;;;22.30;71.10;;;;;;6223567;28;89105;-62
2021/12/09 08:00:17;;;;;;;9.95;9.05;;;22.30;71.10;;;;;;6205705;28;88919;-63
2021/12/09 08:03:19;;;;;;;8.82;8.02;;;22.40;71.10;;;;;;6211585;28;88107;-62
2021/12/09 08:06:21;;;;;;;8.98;8.18;;;22.40;71.00;;;;;;6207255;28;89443;-63
2021/12/09 08:09:23;;;;;;;9.32;8.43;;;22.40;71.00;;;;;;6201906;28;89054;-63
2021/12/09 08:12:27;;;;;;;8.80;8.00;;;22.40;71.00;;;;;;6205816;28;88352;-63
2021/12/09 08:15:32;;;;;;;8.95;8.15;;;22.40;71.00;;;;;;6217959;28;88722;-62
2021/12/09 08:18:53;;;;;;;9.20;8.30;;;22.40;71.00;;;;;;6205587;28;89100;-62
2021/12/09 08:21:55;;;;;;;8.65;7.78;;;22.40;71.00;;;;;;6213235;28;90001;-63
2021/12/09 08:24:58;;;;;;;8.63;7.80;;;22.40;70.90;;;;;;6199591;28;89016;-63
2021/12/09 08:28:02;;;;;;;8.93;8.10;;;22.40;70.90;;;;;;6202636;28;89084;-62
2021/12/09 08:31:04;;;;;;;9.07;8.20;;;22.40;70.90;;;;;;6218726;28;88169;-63
2021/12/09 08:34:08;;;;;;;8.90;8.10;;;22.40;70.90;;;;;;6214188;28;87967;-61
2021/12/09 08:37:10;;;;;;;9.40;8.52;;;22.40;70.80;;;;;;6202748;28;89533;-63
2021/12/09 08:40:14;;;;;;;9.10;8.30;;;22.50;70.90;;;;;;6210841;28;89466;-63
2021/12/09 08:43:19;;;;;;;8.32;7.53;;;22.50;70.90;;;;;;6211246;28;88320;-62
2021/12/09 08:46:21;;;;;;;8.52;7.72;;;22.50;70.90;;;;;;6211091;28;89064;-62
2021/12/09 08:49:23;;;;;;;8.60;7.80;;;22.40;70.90;;;;;;6204650;28;89555;-62
2021/12/09 08:52:25;;;;;;;8.23;7.43;;;22.50;70.90;;;;;;6218383;28;91434;-63
2021/12/09 08:55:27;;;;;;;8.35;7.55;;;22.50;70.80;;;;;;6231395;28;89054;-63
2021/12/09 08:58:31;;;;;;;8.35;7.55;;;22.50;70.90;;;;;;6221238;28;89433;-63
2021/12/09 09:01:34;;;;;;;8.68;7.85;;;22.50;70.90;;;;;;6193585;28;89416;-63
2021/12/09 09:04:36;;;;;;;8.45;7.65;;;22.50;70.90;;;;;;6207302;28;88405;-62
2021/12/09 09:07:38;;;;;;;8.30;7.50;;;22.50;70.80;;;;;;6205376;28;89087;-63
2021/12/09 09:10:42;;;;;;;8.20;7.40;;;22.50;70.80;;;;;;6211752;28;89092;-63
2021/12/09 09:13:46;;;;;;;8.60;7.80;;;22.60;70.80;;;;;;6208758;28;88306;-63
2021/12/09 09:16:49;;;;;;;8.25;7.47;;;22.50;70.80;;;;;;6210012;28;89060;-62
2021/12/09 09:19:51;;;;;;;8.48;7.68;;;22.50;70.70;;;;;;6213345;28;89163;-63
2021/12/09 09:22:53;;;;;;;8.48;7.68;;;22.60;70.80;;;;;;6205058;28;90058;-62
2021/12/09 09:25:55;;;;;;;7.72;7.03;;;22.50;71.60;;;;;;6209225;28;89073;-63
2021/12/09 09:28:59;;;;;;;7.63;6.93;;;22.60;70.80;;;;;;6228757;28;89036;-63
2021/12/09 09:32:01;;;;;;;7.30;6.63;;;22.60;70.80;;;;;;6222528;28;89601;-63
2021/12/09 09:35:04;;;;;;;7.97;7.28;;;22.60;70.80;;;;;;6209015;28;89155;-63
2021/12/09 09:38:07;;;;;;;7.95;7.15;;;22.60;70.80;;;;;;6198442;28;89392;-63
2021/12/09 09:41:14;;;;;;;7.47;6.78;;;22.60;70.80;;;;;;6206381;28;89033;-63
2021/12/09 09:44:18;;;;;;;8.55;7.75;;;22.60;70.80;;;;;;6207336;28;88485;-62
2021/12/09 09:47:21;;;;;;;7.80;7.07;;;22.60;70.70;;;;;;6206938;28;88919;-62
2021/12/09 09:50:24;;;;;;;7.88;7.18;;;22.60;70.70;;;;;;6205825;28;89719;-62
2021/12/09 09:53:26;;;;;;;7.53;6.78;;;22.70;70.80;;;;;;6195865;28;90331;-63
2021/12/09 09:56:31;;;;;;;7.95;7.20;;;22.70;70.80;;;;;;6196624;28;88567;-63
2021/12/09 09:59:35;;;;;;;7.50;6.80;;;22.60;70.70;;;;;;6219313;28;88749;-62
2021/12/09 10:02:37;;;;;;;7.22;6.53;;;22.70;70.80;;;;;;6207471;28;89054;-62
2021/12/09 10:05:43;;;;;;;7.43;6.72;;;22.70;70.80;;;;;;6206227;28;90187;-62
2021/12/09 10:08:45;;;;;;;7.65;6.95;;;22.70;70.80;;;;;;6214313;28;89103;-62
2021/12/09 10:11:48;;;;;;;7.60;6.90;;;22.70;70.70;;;;;;6215946;28;89043;-62
2021/12/09 10:14:53;;;;;;;6.72;6.00;;;22.70;70.70;;;;;;6216553;28;87271;-63
2021/12/09 10:17:55;;;;;;;7.15;6.45;;;22.70;70.70;;;;;;6216078;28;89762;-63
2021/12/09 10:20:57;;;;;;;7.55;6.75;;;22.70;70.70;;;;;;6206468;28;89099;-63
2021/12/09 10:24:01;;;;;;;7.68;6.97;;;22.70;70.60;;;;;;6218966;28;90365;-62
2021/12/09 10:27:04;;;;;;;7.30;6.60;;;22.70;70.70;;;;;;6221274;28;89041;-62
2021/12/09 10:30:19;;;;;;;7.72;7.03;;;22.70;70.60;;;;;;6210480;28;89036;-62
2021/12/09 10:34:01;;;;;;;6.78;6.18;;;22.70;70.70;;;;;;6207268;28;89010;-63
2021/12/09 10:37:07;;;;;;;6.82;6.13;;;22.70;70.60;;;;;;6202749;28;89541;-62
2021/12/09 10:40:11;;;;;;;7.30;6.68;;;22.70;70.60;;;;;;6194392;28;89385;-63
2021/12/09 10:43:18;;;;;;;6.80;6.20;;;22.70;70.60;;;;;;6217498;28;89027;-62
2021/12/09 10:46:50;;;;;;;6.70;6.10;;;22.70;70.60;;;;;;6205275;28;88377;-62
2021/12/09 10:50:05;;;;;;;6.78;6.18;;;22.70;70.60;;;;;;6211641;28;87958;-62
2021/12/09 10:53:31;;;;;;;6.80;6.20;;;22.70;70.60;;;;;;6211490;28;89115;-63
2021/12/09 10:56:33;;;;;;;6.60;6.00;;;22.80;70.70;;;;;;6216715;28;90042;-62
2021/12/09 10:59:35;;;;;;;6.80;6.20;;;22.70;70.70;;;;;;6224199;28;89307;-63
2021/12/09 11:02:38;;;;;;;6.75;6.15;;;22.70;70.70;;;;;;6209756;28;89096;-62
2021/12/09 11:05:45;;;;;;;6.50;5.90;;;22.70;70.70;;;;;;6218268;28;88759;-63
2021/12/09 11:08:49;;;;;;;6.80;6.20;;;22.70;70.60;;;;;;6210157;28;89252;-63
2021/12/09 11:11:56;;;;;;;6.63;6.03;;;22.70;70.60;;;;;;6213495;28;87944;-62
2021/12/09 11:15:01;;;;;;;6.80;6.10;;;22.70;70.70;;;;;;6205911;28;89087;-63
2021/12/09 11:18:08;;;;;;;6.05;5.55;;;22.80;70.70;;;;;;6206930;28;88131;-63
2021/12/09 11:21:20;;;;;;;6.22;5.65;;;22.80;70.70;;;;;;6194170;28;89089;-63
2021/12/09 11:24:24;;;;;;;6.60;6.00;;;22.80;70.70;;;;;;6201269;28;89508;-62
2021/12/09 11:27:28;;;;;;;5.95;5.45;;;22.80;70.70;;;;;;6204689;28;90122;-63
2021/12/09 11:30:32;;;;;;;5.90;5.40;;;22.80;70.60;;;;;;6210895;28;89083;-63
2021/12/09 11:33:40;;;;;;;5.95;5.40;;;22.80;70.70;;;;;;6199924;28;89942;-62
2021/12/09 11:36:45;;;;;;;6.35;5.75;;;22.80;70.60;;;;;;6208152;28;89252;-63
2021/12/09 11:39:48;;;;;;;6.30;5.70;;;22.80;70.60;;;;;;6215607;28;88944;-62
2021/12/09 11:42:56;;;;;;;6.13;5.63;;;22.80;70.70;;;;;;6214093;28;89042;-62
2021/12/09 11:45:59;;;;;;;5.82;5.22;;;22.80;70.60;;;;;;6208796;28;88616;-62
2021/12/09 11:49:03;;;;;;;6.00;5.50;;;22.80;70.60;;;;;;6211899;28;88150;-62
2021/12/09 11:52:05;;;;;;;6.07;5.57;;;22.80;70.70;;;;;;6191513;28;89083;-62
2021/12/09 11:55:09;;;;;;;5.75;5.25;;;22.80;70.70;;;;;;6199132;28;89073;-62
2021/12/09 11:58:19;;;;;;;5.75;5.25;;;22.90;70.70;;;;;;6198190;28;90019;-63
2021/12/09 12:11:42;;;;;;;5.18;4.78;;;22.90;70.70;;;;;;6204465;28;88244;-62
2021/12/09 12:14:47;;;;;;;5.60;5.10;;;22.90;70.70;;;;;;6211986;28;88192;-62
2021/12/09 12:18:13;;;;;;;5.65;5.15;;;22.90;70.60;;;;;;6212974;28;89116;-62
2021/12/09 12:22:09;;;;;;;5.57;5.07;;;22.90;70.60;;;;;;6207658;28;88371;-62
2021/12/09 12:29:39;;;;;;;5.22;4.72;;;22.90;70.60;;;;;;6195436;28;87749;-62
2021/12/09 12:33:07;;;;;;;5.03;4.63;;;22.90;70.70;;;;;;6204349;28;90128;-63
2021/12/09 12:36:41;;;;;;;5.07;4.68;;;22.90;70.80;;;;;;6207130;28;89127;-62
2021/12/09 12:43:29;;;;;;;4.82;4.35;;;22.90;70.60;;;;;;6212116;28;89058;-63
2021/12/09 12:46:49;;;;;;;5.03;4.63;;;22.90;70.60;;;;;;6207127;28;89552;-62
2021/12/09 12:50:10;;;;;;;5.00;4.60;;;22.90;70.60;;;;;;6208676;28;88682;-62
2021/12/09 12:53:32;;;;;;;4.95;4.55;;;22.90;70.70;;;;;;6193262;28;89077;-63
2021/12/09 12:56:43;;;;;;;5.00;4.60;;;22.90;70.60;;;;;;6212252;28;88207;-62
2021/12/09 12:59:59;;;;;;;5.07;4.68;;;22.90;70.60;;;;;;6209346;28;88991;-62
2021/12/09 13:03:14;;;;;;;4.78;4.38;;;22.90;70.60;;;;;;6221013;28;89046;-62
2021/12/09 13:06:45;;;;;;;4.80;4.40;;;22.90;70.70;;;;;;6214345;28;90076;-62
2021/12/09 13:10:00;;;;;;;4.68;4.28;;;23.00;70.70;;;;;;6195712;28;89967;-62
2021/12/09 13:13:17;;;;;;;4.80;4.40;;;22.90;70.60;;;;;;6204711;28;89241;-62
2021/12/09 13:16:34;;;;;;;4.70;4.30;;;22.90;70.60;;;;;;6207018;28;89152;-62
2021/12/09 13:19:40;;;;;;;4.60;4.20;;;22.90;70.70;;;;;;6201955;28;89140;-63
2021/12/09 13:22:42;;;;;;;4.63;4.22;;;23.00;70.70;;;;;;6209655;28;89015;-62
2021/12/09 13:26:17;;;;;;;4.57;4.18;;;22.90;70.70;;;;;;6206468;28;89006;-62
2021/12/09 13:29:35;;;;;;;4.80;4.40;;;22.90;70.70;;;;;;6185304;28;88403;-62
2021/12/09 13:33:21;;;;;;;4.57;4.18;;;22.90;70.60;;;;;;6207871;28;89143;-62
2021/12/09 13:36:52;;;;;;;4.70;4.30;;;22.90;70.60;;;;;;6205532;28;89440;-62
2021/12/09 13:47:05;;;;;;;4.15;3.85;;;23.00;70.60;;;;;;6171544;28;87903;-62
2021/12/09 13:50:37;;;;;;;4.50;4.10;;;23.00;70.60;;;;;;6207533;28;89377;-63
2021/12/09 13:57:00;;;;;;;4.15;3.85;;;23.00;70.60;;;;;;6211073;28;87216;-63
2021/12/09 14:00:20;;;;;;;4.50;4.10;;;23.00;70.60;;;;;;6211290;28;89428;-63
2021/12/09 14:03:26;;;;;;;3.72;3.42;;;23.00;70.60;;;;;;6206288;28;88326;-62
2021/12/09 14:06:28;;;;;;;3.90;3.60;;;23.00;70.60;;;;;;6210219;28;89357;-63
2021/12/09 14:09:32;;;;;;;4.13;3.83;;;23.00;70.60;;;;;;6202212;28;89227;-62
2021/12/09 14:12:41;;;;;;;4.32;3.92;;;23.00;70.60;;;;;;6213982;28;88861;-63
2021/12/09 14:15:59;;;;;;;4.35;3.95;;;23.00;70.60;;;;;;6208501;28;88435;-62
2021/12/09 14:22:25;;;;;;;3.90;3.60;;;23.00;70.60;;;;;;6181287;28;87960;-63
2021/12/09 14:25:31;;;;;;;4.10;3.80;;;23.00;70.60;;;;;;6207165;28;89123;-62
2021/12/09 14:28:35;;;;;;;4.07;3.78;;;23.00;70.50;;;;;;6205245;28;88243;-63
2021/12/09 14:31:47;;;;;;;3.80;3.50;;;23.00;71.50;;;;;;6197930;28;88068;-63
2021/12/09 14:34:52;;;;;;;3.92;3.63;;;23.00;70.60;;;;;;6197274;28;88313;-62
2021/12/09 14:37:55;;;;;;;3.80;3.50;;;23.00;70.80;;;;;;6195032;28;89076;-62
2021/12/09 14:41:02;;;;;;;4.03;3.63;;;23.00;70.80;;;;;;6205056;28;88337;-63
2021/12/09 14:44:08;;;;;;;4.03;3.72;;;23.00;70.90;;;;;;6195071;28;90240;-62
2021/12/09 14:47:12;;;;;;;3.78;3.47;;;23.00;71.00;;;;;;6197038;28;89264;-62
2021/12/09 14:50:15;;;;;;;3.70;3.38;;;23.00;71.00;;;;;;6193336;28;89104;-63
2021/12/09 14:53:33;;;;;;;4.00;3.60;;;23.00;71.10;;;;;;6189580;28;89126;-62
2021/12/09 14:56:40;;;;;;;4.10;3.65;;;23.00;71.30;;;;;;6200592;28;88830;-62
2021/12/09 14:59:45;;;;;;;3.80;3.50;;;23.00;71.30;;;;;;6192657;28;89000;-62
2021/12/09 15:02:53;;;;;;;4.13;3.78;;;23.00;71.20;;;;;;6184458;28;88709;-62
2021/12/09 15:05:58;;;;;;;3.42;3.22;;;23.00;71.30;;;;;;6193606;28;89374;-63
2021/12/09 15:09:13;;;;;;;3.88;3.45;;;23.00;71.20;;;;;;6194901;28;89131;-63
2021/12/09 15:12:18;;;;;;;3.75;3.30;;;23.00;71.20;;;;;;6208083;28;89551;-63
2021/12/09 15:15:22;;;;;;;3.80;3.50;;;23.10;71.20;;;;;;6206356;28;90094;-62
2021/12/09 15:18:28;;;;;;;5.13;3.63;;;23.10;71.20;;;;;;6208526;28;89195;-62
2021/12/09 15:21:31;;;;;;;3.75;3.13;;;23.00;71.10;;;;;;6203245;28;89129;-62
2021/12/09 15:24:33;;;;;;;3.50;3.20;;;23.10;71.10;;;;;;6190739;28;89904;-62
2021/12/09 15:27:50;;;;;;;3.80;3.40;;;23.10;71.10;;;;;;6218298;28;89066;-62
2021/12/09 15:30:55;;;;;;;3.22;3.00;;;23.10;71.10;;;;;;6197887;28;88105;-62
2021/12/09 15:34:01;;;;;;;3.70;3.40;;;23.10;71.10;;;;;;6193684;28;89403;-63
2021/12/09 15:37:07;;;;;;;3.55;3.10;;;23.00;71.10;;;;;;6204999;28;88309;-63
2021/12/09 15:40:11;;;;;;;4.07;3.40;;;23.00;71.10;;;;;;6212169;28;89092;-62
2021/12/09 15:43:16;;;;;;;3.60;3.30;;;23.00;71.10;;;;;;6211017;28;89105;-62
2021/12/09 15:46:18;;;;;;;3.40;3.10;;;23.10;71.10;;;;;;6219653;28;89966;-62
2021/12/09 15:49:22;;;;;;;4.43;3.10;;;23.10;71.10;;;;;;6217140;28;89382;-63
2021/12/09 15:52:33;;;;;;;3.60;3.30;;;23.10;71.30;;;;;;6202000;28;89055;-63
2021/12/09 15:55:38;;;;;;;4.60;3.53;;;23.10;71.30;;;;;;6199563;28;89225;-62
2021/12/09 15:58:41;;;;;;;3.72;3.42;;;23.10;71.50;;;;;;6222074;28;89289;-63
2021/12/09 16:01:45;;;;;;;3.90;3.22;;;23.40;70.80;;;;;;6205381;28;89826;-63
2021/12/09 16:04:48;;;;;;;4.00;3.60;;;23.60;70.50;;;;;;6209975;28;88002;-63
2021/12/09 16:07:51;;;;;;;4.20;3.38;;;23.70;70.20;;;;;;6196469;28;87272;-62
2021/12/09 16:10:54;;;;;;;3.92;3.30;;;23.70;70.10;;;;;;6212148;28;89003;-63
2021/12/09 16:14:00;;;;;;;5.53;3.58;;;23.60;70.20;;;;;;6203185;28;89147;-63
2021/12/09 16:17:05;;;;;;;4.22;3.00;;;23.60;70.30;;;;;;6202397;28;90336;-63
2021/12/09 16:20:11;;;;;;;4.20;3.47;;;23.60;70.40;;;;;;6191365;28;88958;-64
2021/12/09 16:23:14;;;;;;;3.67;3.30;;;23.50;70.50;;;;;;6199390;28;89571;-63
2021/12/09 16:26:18;;;;;;;3.65;3.35;;;23.50;70.50;;;;;;6209171;28;89097;-63